My Meet Scores
Clover Whalen, Gymkhana Gymnastics Club and Dance Studio - MyMeetScores.com
Top100 | Top Teams | Upcoming Meets | Completed Meets | Latest | Add Scores | Help| Support | Bookmark and Share

Clover Whalen, Gymkhana Gymnastics Club and Dance Studio
Personal Bests
LevelVault BarsBeamFloorAA
69.2508.900 9.5509.70036.750
79.5258.800 9.5759.57536.850
89.4508.650 9.2759.50036.375
Meet Scores
Date Meet Team Session Level Division Vault Bars Beam Floor AA
2020-02-21 Kinetic Classic Gymkhana Gymnastics Club and Dance Studio 04 8 Older 9.450 1 8.650 16 8.875 13T 9.400 6 36.375 7
2020-02-07 Harley Meet Womens - Midwest Twisters Gymkhana Gymnastics Club and Dance Studio O06 8 Sr A 9.300 2 8.425 7 8.025 11 9.325 3 35.075 7
2020-01-24 King Arthur Invitational Gymkhana Gymnastics Club and Dance Studio 3 8 SR 9.250 1 6.200 8 8.625 5 9.300 1 33.375 5
2020-01-10 St Jude Benefit Meet Gymkhana Gymnastics Club and Dance Studio 8C 8 Sr A 9.425 2T 7.525 14 9.275 2 9.500 3 35.725 7
2019-04-26 Level 7/8 Region 5 Regionals The Gymnastics Shop 3A 7 SRB1 9.525 7 8.200 23 9.575 3T 9.550 1T 36.850 14
2019-03-29 Illinois Level 7 & 8 State Meet The Gymnastics Shop 8 7 Sr C 9.500 3 7.900 23 9.350 9 9.575 2 36.325 15
2019-02-23 Kinetic Classic 2019 The Gymnastics Shop 1 7 Older 8.750 11 6.750 16 9.200 4 9.400 3 34.100 16
2019-01-25 Great Destinations - California 2019 The Gymnastics Shop 06B 7 SENIOR 8.900 6 7.400 6 9.100 3 9.375 2T 34.775 4
2019-01-18 2019 Bravo Classic The Gymnastics Shop 10A 7 Jr 8.850 6T 8.100 14 9.350 5 9.325 10T 35.625 9
2019-01-11 St Jude Benefit Meet The Gymnastics Shop 4B 7 Sr B 8.950 6 8.800 4 9.200 2T 9.450 6 36.400 4
2018-12-07 St. Nick Invite 2018 The Gymnastics Shop 6B 7 SrA 9.075 6 8.000 10 9.175 2T 9.500 1T 35.750 7
2018-11-30 Ultimate Wish Classic The Gymnastics Shop 2 7 SR 9.400 4 7.775 15 8.750 11 8.450 17 34.375 11T
2018-03-16 2018 Illinois Level 6, 9, 10 State Championships The Gymnastics Shop 09 6 Jr E 9.100 9T 8.550 14T 8.825 17 9.550 4T 36.025 16
2018-02-23 Kinetic Classic The Gymnastics Shop 9 6 Older 8.800 37T 8.800 51T 9.150 30T 9.700 2 36.450 29
2018-02-17 Women's Midwest Open The Gymnastics Shop 11 6 JR B 9.250 6 8.900 7* 9.000 12 9.450 2T 36.600 5T
2018-02-08 Nashville Nights 2018 The Gymnastics Shop B09 6 SrA 8.950 2 8.800 2 9.050 4 9.200 5T 36.000 4
2018-01-19 2018 Bravo Classic The Gymnastics Shop 2A 6 Sr 8.925 14 8.350 9 9.300 5T 9.350 4T 35.925 7
2018-01-12 St Jude Benefit Meet The Gymnastics Shop 6C 6 SrA 8.850 9T 8.025 10 9.300 2 8.950 9 35.125 7
2017-12-15 2017 Aspire Classic The Gymnastics Shop 1 6 Sr A 8.850 13 8.600 11 9.550 1 9.300 4 36.300 5
2017-12-08 St. Nick Invite The Gymnastics Shop 5B 6 JrB 9.250 3T 8.550 6 9.350 2 9.600 1 36.750 2
2017-12-01 Ultimate Wish Classic The Gymnastics Shop 1 6 JR 9.050 7 8.400 9 8.900 7T 9.325 6T 35.675 7
2017-11-10 Illinois NAWGJ Judges Cup 2017 The Gymnastics Shop S3 6 All Ages 8.700 22T 8.225 28 8.775 18* 9.275 17T 34.975 20T
Get your scores on
a t-shirt, pin, or hoodie

www.lazysuits.com